Time;durP1;ratioP1;P1;durP2;ratioP2;P2;SDS_P1;SDS_P2;PMS_P1;PMS_P2;Temp;Humidity;BMP_temperature;BMP_pressure;BME280_temperature;BME280_humidity;BME280_pressure;Samples;Min_cycle;Max_cycle;Signal;HPM_P1;HPM_P2
2020/12/22 00:00:06;;;;;;;;;;;10.70;88.50;;;;;;5008835;28;19926;-45
2020/12/22 00:02:32;;;;;;;;;;;10.70;88.80;;;;;;5009875;28;19936;-45
2020/12/22 00:04:58;;;;;;;;;;;10.70;88.80;;;;;;5004027;28;20016;-45
2020/12/22 00:07:24;;;;;;;;;;;10.70;88.90;;;;;;5009872;28;19936;-43
2020/12/22 00:09:50;;;;;;;;;;;10.70;88.70;;;;;;5002338;28;19929;-45
2020/12/22 00:12:17;;;;;;;;;;;10.70;88.60;;;;;;5007701;28;19925;-44
2020/12/22 00:14:44;;;;;;;;;;;10.70;88.80;;;;;;5005494;28;20389;-43
2020/12/22 00:17:10;;;;;;;;;;;10.80;88.80;;;;;;5008943;28;19929;-45
2020/12/22 00:19:36;;;;;;;;;;;10.80;88.60;;;;;;5005993;28;19967;-45
2020/12/22 00:22:02;;;;;;;;;;;10.80;88.40;;;;;;5006638;28;19929;-44
2020/12/22 00:24:29;;;;;;;;;;;10.80;88.70;;;;;;5007969;28;19926;-44
2020/12/22 00:26:55;;;;;;;;;;;10.90;88.40;;;;;;5008023;28;20429;-45
2020/12/22 00:29:21;;;;;;;;;;;10.80;88.50;;;;;;5007530;28;19933;-44
2020/12/22 00:31:48;;;;;;;;;;;10.90;88.70;;;;;;5005579;28;20649;-45
2020/12/22 00:34:17;;;;;;;;;;;11.00;88.50;;;;;;5007859;28;19925;-44
2020/12/22 00:36:44;;;;;;;;;;;11.00;88.10;;;;;;5006857;28;19933;-43
2020/12/22 00:39:10;;;;;;;;;;;11.00;88.30;;;;;;5007280;28;19933;-44
2020/12/22 00:41:36;;;;;;;;;;;11.00;88.40;;;;;;5005887;28;20034;-47
2020/12/22 00:44:02;;;;;;;;;;;11.00;88.60;;;;;;5011599;28;19935;-43
2020/12/22 00:46:29;;;;;;;;;;;11.00;88.50;;;;;;5009804;28;19929;-43
2020/12/22 00:48:56;;;;;;;;;;;11.00;88.50;;;;;;5003656;28;20037;-43
2020/12/22 00:51:23;;;;;;;;;;;11.00;88.40;;;;;;5005383;28;20309;-44
2020/12/22 00:53:49;;;;;;;;;;;11.10;88.40;;;;;;5007440;28;19929;-44
2020/12/22 00:56:17;;;;;;;;;;;11.00;88.60;;;;;;5009995;28;19999;-45
2020/12/22 00:58:47;;;;;;;;;;;11.10;88.30;;;;;;5004854;28;19933;-42
2020/12/22 01:01:13;;;;;;;;;;;11.10;88.30;;;;;;5005395;28;21302;-44
2020/12/22 01:03:40;;;;;;;;;;;11.10;88.30;;;;;;5003534;28;19929;-44
2020/12/22 01:06:06;;;;;;;;;;;11.10;88.60;;;;;;5010002;28;20288;-44
2020/12/22 01:08:32;;;;;;;;;;;11.20;88.50;;;;;;5007438;28;20393;-43
2020/12/22 01:10:59;;;;;;;;;;;11.20;88.50;;;;;;5002503;28;19929;-45
2020/12/22 01:13:25;;;;;;;;;;;11.20;88.40;;;;;;5000670;28;19931;-45
2020/12/22 01:15:51;;;;;;;;;;;11.20;88.50;;;;;;5004034;28;19937;-44
2020/12/22 01:18:17;;;;;;;;;;;11.20;88.60;;;;;;5004278;28;19941;-42
2020/12/22 01:20:43;;;;;;;;;;;11.20;88.70;;;;;;5001209;28;19929;-45
2020/12/22 01:23:09;;;;;;;;;;;11.20;88.80;;;;;;5006332;28;19933;-44
2020/12/22 01:25:36;;;;;;;;;;;11.20;88.70;;;;;;5005634;28;19931;-45
2020/12/22 01:28:02;;;;;;;;;;;11.30;88.50;;;;;;5004010;28;19944;-44
2020/12/22 01:30:29;;;;;;;;;;;11.30;88.80;;;;;;5002734;28;20011;-45
2020/12/22 01:32:55;;;;;;;;;;;11.30;88.60;;;;;;5004042;28;19999;-44
2020/12/22 01:35:21;;;;;;;;;;;11.40;88.60;;;;;;5021550;28;19940;-45
2020/12/22 01:37:47;;;;;;;;;;;11.40;88.50;;;;;;5000080;28;19929;-44
2020/12/22 01:40:14;;;;;;;;;;;11.50;88.10;;;;;;4998349;28;20432;-44
2020/12/22 01:42:43;;;;;;;;;;;11.50;87.80;;;;;;5000052;28;19933;-45
2020/12/22 01:45:10;;;;;;;;;;;11.50;87.80;;;;;;5001278;28;19929;-43
2020/12/22 01:47:42;;;;;;;;;;;11.50;87.50;;;;;;5002384;28;20495;-43
2020/12/22 01:50:08;;;;;;;;;;;11.50;87.40;;;;;;5003254;28;19933;-45
2020/12/22 01:52:34;;;;;;;;;;;11.50;87.80;;;;;;5007569;28;19936;-44
2020/12/22 01:55:00;;;;;;;;;;;11.50;88.00;;;;;;5004988;28;19929;-45
2020/12/22 01:57:27;;;;;;;;;;;11.50;88.10;;;;;;5002499;28;20851;-46
2020/12/22 01:59:53;;;;;;;;;;;11.50;88.60;;;;;;5003684;28;19925;-45
2020/12/22 02:02:19;;;;;;;;;;;11.50;88.70;;;;;;5008040;28;19932;-44
2020/12/22 02:04:45;;;;;;;;;;;11.50;88.80;;;;;;5008149;28;19933;-44
2020/12/22 02:07:12;;;;;;;;;;;11.50;88.80;;;;;;5008187;28;20269;-45
2020/12/22 02:09:39;;;;;;;;;;;11.50;88.70;;;;;;5008602;28;19940;-45
2020/12/22 02:12:05;;;;;;;;;;;11.50;88.90;;;;;;5006852;28;19933;-45
2020/12/22 02:14:32;;;;;;;;;;;11.50;88.90;;;;;;5007239;28;19930;-44
2020/12/22 02:16:58;;;;;;;;;;;11.50;89.20;;;;;;5009842;28;20280;-45
2020/12/22 02:19:24;;;;;;;;;;;11.50;89.30;;;;;;5007474;28;19982;-43
2020/12/22 02:21:51;;;;;;;;;;;11.60;89.30;;;;;;5006857;28;19925;-46
2020/12/22 02:24:18;;;;;;;;;;;11.60;89.30;;;;;;5007347;28;19929;-44
2020/12/22 02:26:44;;;;;;;;;;;11.70;89.10;;;;;;5008581;28;19936;-45
2020/12/22 02:29:10;;;;;;;;;;;11.70;89.00;;;;;;5008010;28;19960;-44
2020/12/22 02:31:36;;;;;;;;;;;11.70;88.80;;;;;;5006633;28;19935;-45
2020/12/22 02:34:02;;;;;;;;;;;11.70;88.90;;;;;;5006088;28;19951;-45
2020/12/22 02:36:29;;;;;;;;;;;11.60;88.90;;;;;;5004032;28;19952;-44
2020/12/22 02:38:55;;;;;;;;;;;11.70;89.00;;;;;;5010512;28;19951;-45
2020/12/22 02:41:22;;;;;;;;;;;11.70;88.90;;;;;;5006955;28;19926;-43
2020/12/22 02:43:48;;;;;;;;;;;11.70;88.60;;;;;;5004413;28;19933;-45
2020/12/22 02:46:14;;;;;;;;;;;11.70;88.80;;;;;;5007047;28;20390;-43
2020/12/22 02:48:40;;;;;;;;;;;11.70;88.70;;;;;;5008051;28;19929;-43
2020/12/22 02:51:07;;;;;;;;;;;11.70;88.80;;;;;;5007891;28;19925;-45
2020/12/22 02:53:33;;;;;;;;;;;11.70;88.90;;;;;;5012438;28;19933;-45
2020/12/22 02:55:59;;;;;;;;;;;11.70;88.70;;;;;;5006644;28;19925;-43
2020/12/22 02:58:25;;;;;;;;;;;11.70;88.60;;;;;;5007544;28;20296;-43
2020/12/22 03:00:52;;;;;;;;;;;11.80;88.50;;;;;;5019832;28;19933;-45
2020/12/22 03:03:18;;;;;;;;;;;11.80;88.60;;;;;;5005045;28;19995;-44
2020/12/22 03:05:44;;;;;;;;;;;11.80;88.40;;;;;;5006114;28;19929;-44
2020/12/22 03:08:10;;;;;;;;;;;11.80;88.50;;;;;;5002693;28;19929;-46
2020/12/22 03:10:37;;;;;;;;;;;11.80;88.30;;;;;;5007546;28;19948;-42
2020/12/22 03:13:05;;;;;;;;;;;11.80;88.20;;;;;;5002982;28;19960;-46
2020/12/22 03:15:31;;;;;;;;;;;11.80;88.30;;;;;;5022965;28;19952;-44
2020/12/22 03:17:57;;;;;;;;;;;11.80;88.50;;;;;;5004469;28;19941;-45
2020/12/22 03:20:26;;;;;;;;;;;11.80;88.60;;;;;;5005215;28;19933;-46
2020/12/22 03:22:52;;;;;;;;;;;11.90;88.30;;;;;;5005380;28;19948;-43
2020/12/22 03:25:19;;;;;;;;;;;11.90;88.00;;;;;;5008996;28;20011;-43
2020/12/22 03:27:45;;;;;;;;;;;12.00;88.00;;;;;;5007191;28;19940;-43
2020/12/22 03:30:16;;;;;;;;;;;12.00;87.80;;;;;;5006716;28;19933;-44
2020/12/22 03:32:42;;;;;;;;;;;12.00;87.80;;;;;;5006158;28;19937;-45
2020/12/22 03:35:10;;;;;;;;;;;11.90;88.10;;;;;;5007682;28;20056;-43
2020/12/22 03:37:36;;;;;;;;;;;11.90;88.30;;;;;;5002281;28;21858;-45
2020/12/22 03:40:05;;;;;;;;;;;11.90;88.70;;;;;;5005941;28;20018;-46
2020/12/22 03:42:32;;;;;;;;;;;11.90;88.60;;;;;;5007952;28;19929;-46
2020/12/22 03:44:58;;;;;;;;;;;12.00;88.40;;;;;;5003602;28;19925;-42
2020/12/22 03:47:25;;;;;;;;;;;12.00;88.40;;;;;;5003467;28;20369;-43
2020/12/22 03:49:54;;;;;;;;;;;12.00;88.50;;;;;;5004782;28;19933;-43
2020/12/22 03:52:20;;;;;;;;;;;12.00;88.70;;;;;;5003211;28;19933;-43
2020/12/22 03:54:46;;;;;;;;;;;12.00;88.50;;;;;;5006894;28;20283;-43
2020/12/22 03:57:14;;;;;;;;;;;12.00;88.60;;;;;;5008566;28;19931;-44
2020/12/22 03:59:41;;;;;;;;;;;12.00;88.40;;;;;;5001839;28;19929;-43
2020/12/22 04:02:07;;;;;;;;;;;12.10;88.50;;;;;;5007212;28;19933;-44
2020/12/22 04:04:33;;;;;;;;;;;12.10;88.40;;;;;;5004855;28;19933;-43
2020/12/22 04:06:59;;;;;;;;;;;12.10;88.50;;;;;;5006962;28;20348;-43
2020/12/22 04:09:25;;;;;;;;;;;12.10;88.60;;;;;;4998831;28;19975;-44
2020/12/22 04:11:52;;;;;;;;;;;12.10;88.90;;;;;;5004995;28;21613;-45
2020/12/22 04:14:19;;;;;;;;;;;12.10;88.60;;;;;;5010108;28;19931;-45
2020/12/22 04:16:45;;;;;;;;;;;12.10;88.80;;;;;;5003449;28;19929;-45
2020/12/22 04:19:11;;;;;;;;;;;12.10;89.00;;;;;;5003085;28;20041;-45
2020/12/22 04:21:38;;;;;;;;;;;12.10;89.10;;;;;;5004439;28;20277;-43
2020/12/22 04:24:07;;;;;;;;;;;12.10;89.20;;;;;;5018286;28;20017;-44
2020/12/22 04:26:34;;;;;;;;;;;12.10;89.00;;;;;;5019270;28;19933;-45
2020/12/22 04:29:00;;;;;;;;;;;12.10;88.80;;;;;;5006378;28;20396;-45
2020/12/22 04:31:27;;;;;;;;;;;12.10;89.10;;;;;;5000640;28;19925;-44
2020/12/22 04:33:54;;;;;;;;;;;12.20;88.70;;;;;;5007023;28;19929;-44
2020/12/22 04:36:21;;;;;;;;;;;12.20;88.60;;;;;;5003739;28;19933;-45
2020/12/22 04:38:49;;;;;;;;;;;12.30;88.50;;;;;;5001475;28;19940;-45
2020/12/22 04:41:16;;;;;;;;;;;12.30;88.30;;;;;;5007482;28;19929;-44
2020/12/22 04:43:43;;;;;;;;;;;12.30;88.30;;;;;;5002575;28;19930;-43
2020/12/22 04:46:09;;;;;;;;;;;12.30;88.30;;;;;;5004694;28;19925;-45
2020/12/22 04:48:37;;;;;;;;;;;12.30;88.20;;;;;;5003237;28;20335;-43
2020/12/22 04:51:05;;;;;;;;;;;12.40;88.00;;;;;;5004733;28;19938;-44
2020/12/22 04:53:32;;;;;;;;;;;12.40;87.90;;;;;;5002611;28;19929;-43
2020/12/22 04:55:59;;;;;;;;;;;12.40;87.60;;;;;;5005912;28;20040;-46
2020/12/22 04:58:28;;;;;;;;;;;12.40;87.70;;;;;;5008043;28;19941;-42
2020/12/22 05:00:55;;;;;;;;;;;12.40;87.80;;;;;;5021800;28;19960;-43
2020/12/22 05:03:22;;;;;;;;;;;12.50;87.60;;;;;;5002596;28;19936;-43
2020/12/22 05:05:50;;;;;;;;;;;12.50;87.40;;;;;;5014076;28;20292;-45
2020/12/22 05:08:16;;;;;;;;;;;12.50;87.30;;;;;;5012799;28;19933;-43
2020/12/22 05:10:44;;;;;;;;;;;12.50;87.60;;;;;;5014081;28;19929;-43
2020/12/22 05:13:11;;;;;;;;;;;12.50;87.50;;;;;;5016633;28;19939;-44
2020/12/22 05:15:41;;;;;;;;;;;12.50;87.70;;;;;;5014691;28;19932;-43
2020/12/22 05:18:07;;;;;;;;;;;12.50;87.60;;;;;;5014553;28;20374;-42
2020/12/22 05:20:33;;;;;;;;;;;12.50;88.10;;;;;;5015355;28;19944;-43
2020/12/22 05:22:59;;;;;;;;;;;12.50;88.20;;;;;;5011765;28;19933;-43
2020/12/22 05:25:26;;;;;;;;;;;12.50;88.40;;;;;;5011188;28;19933;-43
2020/12/22 05:27:55;;;;;;;;;;;12.60;88.30;;;;;;5012907;28;19925;-43
2020/12/22 05:30:22;;;;;;;;;;;12.60;88.20;;;;;;5013583;28;21757;-43
2020/12/22 05:32:48;;;;;;;;;;;12.60;88.00;;;;;;5017163;28;19940;-43
2020/12/22 05:35:15;;;;;;;;;;;12.60;88.50;;;;;;5012802;28;20370;-43
2020/12/22 05:37:41;;;;;;;;;;;12.50;88.40;;;;;;5022322;28;19925;-44
2020/12/22 05:40:09;;;;;;;;;;;12.60;88.50;;;;;;5019063;28;20408;-43
2020/12/22 05:42:36;;;;;;;;;;;12.60;88.20;;;;;;5016416;28;19933;-43
2020/12/22 05:45:05;;;;;;;;;;;12.60;88.30;;;;;;5016834;28;20309;-43
2020/12/22 05:47:32;;;;;;;;;;;12.60;88.30;;;;;;5020821;28;19925;-43
2020/12/22 05:49:58;;;;;;;;;;;12.60;88.60;;;;;;5018166;28;20688;-42
2020/12/22 05:52:29;;;;;;;;;;;12.50;88.70;;;;;;5019393;28;19929;-43
2020/12/22 05:54:59;;;;;;;;;;;12.50;88.80;;;;;;5017073;28;20292;-43
2020/12/22 05:57:26;;;;;;;;;;;12.50;89.20;;;;;;5017463;28;19934;-43
2020/12/22 05:59:52;;;;;;;;;;;12.50;89.40;;;;;;5020728;28;19928;-44
2020/12/22 06:02:29;;;;;;;;;;;12.40;89.50;;;;;;5019436;28;20568;-44
2020/12/22 06:04:57;;;;;;;;;;;12.40;89.50;;;;;;5021459;28;19930;-43
2020/12/22 06:07:27;;;;;;;;;;;12.50;89.40;;;;;;5018003;28;19929;-44
2020/12/22 06:09:53;;;;;;;;;;;12.50;89.30;;;;;;5015013;28;20354;-42
2020/12/22 06:12:21;;;;;;;;;;;12.50;89.40;;;;;;5019759;28;19933;-43
2020/12/22 06:14:48;;;;;;;;;;;12.50;89.20;;;;;;5014169;28;19933;-44
2020/12/22 06:17:14;;;;;;;;;;;12.50;89.20;;;;;;5016094;28;19960;-44
2020/12/22 06:19:41;;;;;;;;;;;12.50;89.10;;;;;;5017161;28;19934;-43
2020/12/22 06:22:09;;;;;;;;;;;12.50;88.80;;;;;;5019326;28;19937;-43
2020/12/22 06:24:36;;;;;;;;;;;12.50;88.90;;;;;;5019792;28;20274;-43
2020/12/22 06:27:05;;;;;;;;;;;12.50;89.10;;;;;;5021260;28;19929;-44
2020/12/22 06:29:32;;;;;;;;;;;12.50;88.90;;;;;;5019167;28;19929;-43
2020/12/22 06:32:17;;;;;;;;;;;12.40;89.10;;;;;;5035003;28;19925;-43
2020/12/22 06:34:43;;;;;;;;;;;12.40;89.40;;;;;;5034627;28;19935;-43
2020/12/22 06:37:10;;;;;;;;;;;12.40;89.30;;;;;;5018735;28;20369;-43
2020/12/22 06:39:40;;;;;;;;;;;12.40;89.30;;;;;;5021378;28;20462;-43
2020/12/22 06:42:07;;;;;;;;;;;12.40;89.40;;;;;;5019988;28;19980;-43
2020/12/22 06:44:34;;;;;;;;;;;12.40;89.70;;;;;;5008635;28;20387;-43
2020/12/22 06:47:00;;;;;;;;;;;12.40;89.30;;;;;;5021110;28;19952;-43
2020/12/22 06:49:45;;;;;;;;;;;12.40;89.40;;;;;;5034804;28;20017;-43
2020/12/22 06:52:35;;;;;;;;;;;12.40;89.30;;;;;;5020877;28;19960;-44
2020/12/22 06:55:02;;;;;;;;;;;12.40;89.60;;;;;;5020841;28;19931;-44
2020/12/22 06:57:48;;;;;;;;;;;12.40;89.40;;;;;;5020607;28;19925;-43
2020/12/22 07:00:27;;;;;;;;;;;12.40;89.60;;;;;;5020022;28;20281;-43
2020/12/22 07:03:16;;;;;;;;;;;12.40;89.60;;;;;;5018624;28;20374;-44
2020/12/22 07:05:47;;;;;;;;;;;12.30;89.80;;;;;;5015437;28;20396;-43
2020/12/22 07:08:15;;;;;;;;;;;12.30;89.80;;;;;;5020840;28;20024;-43
2020/12/22 07:10:43;;;;;;;;;;;12.40;89.70;;;;;;5020927;28;20011;-43
2020/12/22 07:13:12;;;;;;;;;;;12.40;89.80;;;;;;5018972;28;20440;-43
2020/12/22 07:15:54;;;;;;;;;;;12.40;89.60;;;;;;5017669;28;20272;-43
2020/12/22 07:18:28;;;;;;;;;;;12.50;89.30;;;;;;5020211;28;20389;-43
2020/12/22 07:20:55;;;;;;;;;;;12.40;89.30;;;;;;5019784;28;19940;-43
2020/12/22 07:23:21;;;;;;;;;;;12.50;89.50;;;;;;5020055;28;20373;-43
2020/12/22 07:25:47;;;;;;;;;;;12.50;89.60;;;;;;4999181;28;19925;-44
2020/12/22 07:28:16;;;;;;;;;;;12.40;89.40;;;;;;5020415;28;19929;-44
2020/12/22 07:30:43;;;;;;;;;;;12.50;89.50;;;;;;5033136;28;19929;-44
2020/12/22 07:33:10;;;;;;;;;;;12.50;89.40;;;;;;5019812;28;19944;-45
2020/12/22 07:35:37;;;;;;;;;;;12.50;89.30;;;;;;5017552;28;20299;-45
2020/12/22 07:38:07;;;;;;;;;;;12.50;89.20;;;;;;5017807;28;19929;-44
2020/12/22 07:40:38;;;;;;;;;;;12.60;89.40;;;;;;5018306;28;19964;-43
2020/12/22 07:43:08;;;;;;;;;;;12.60;89.20;;;;;;5018962;28;19937;-46
2020/12/22 07:45:34;;;;;;;;;;;12.60;89.30;;;;;;5015888;28;19933;-42
2020/12/22 07:48:06;;;;;;;;;;;12.60;89.30;;;;;;5019445;28;19933;-45
2020/12/22 07:50:33;;;;;;;;;;;12.60;89.30;;;;;;4999513;28;20301;-45
2020/12/22 07:52:59;;;;;;;;;;;12.60;89.20;;;;;;4997993;28;19940;-43
2020/12/22 07:55:35;;;;;;;;;;;12.70;89.30;;;;;;5013502;28;19931;-42
2020/12/22 07:58:01;;;;;;;;;;;12.70;89.20;;;;;;5019493;28;19944;-44
2020/12/22 08:00:28;;;;;;;;;;;12.70;88.60;;;;;;5019024;28;19967;-44
2020/12/22 08:02:54;;;;;;;;;;;12.80;88.70;;;;;;5016592;28;19935;-43
2020/12/22 08:05:20;;;;;;;;;;;12.70;88.80;;;;;;5018903;28;19925;-43
2020/12/22 08:07:53;;;;;;;;;;;12.80;88.80;;;;;;5020165;28;19959;-43
2020/12/22 08:10:19;;;;;;;;;;;12.90;88.50;;;;;;5016793;28;19925;-43
2020/12/22 08:12:50;;;;;;;;;;;12.80;88.30;;;;;;5018198;28;19929;-43
2020/12/22 08:15:17;;;;;;;;;;;12.80;88.50;;;;;;5016914;28;19933;-43
2020/12/22 08:17:48;;;;;;;;;;;12.90;88.50;;;;;;5018708;28;20304;-44
2020/12/22 08:20:15;;;;;;;;;;;13.00;88.00;;;;;;5022285;28;19929;-43
2020/12/22 08:22:41;;;;;;;;;;;13.00;88.00;;;;;;5018356;28;19944;-43
2020/12/22 08:25:08;;;;;;;;;;;13.00;87.90;;;;;;5019967;28;19926;-44
2020/12/22 08:27:35;;;;;;;;;;;13.00;87.60;;;;;;5021104;28;19929;-43
2020/12/22 08:30:01;;;;;;;;;;;13.00;87.60;;;;;;5017017;28;20549;-44
2020/12/22 08:32:27;;;;;;;;;;;13.00;88.00;;;;;;5017900;28;20025;-43
2020/12/22 08:34:53;;;;;;;;;;;13.00;87.90;;;;;;5018312;28;19929;-43
2020/12/22 08:37:29;;;;;;;;;;;13.10;87.80;;;;;;5017535;28;19925;-43
2020/12/22 08:39:55;;;;;;;;;;;13.00;87.90;;;;;;5024095;28;19936;-43
2020/12/22 08:42:22;;;;;;;;;;;13.10;87.80;;;;;;5020443;28;19933;-43
2020/12/22 08:44:49;;;;;;;;;;;13.10;87.70;;;;;;5017546;28;19935;-44
2020/12/22 08:47:15;;;;;;;;;;;13.20;87.80;;;;;;5017826;28;19925;-43
2020/12/22 08:49:43;;;;;;;;;;;13.20;87.70;;;;;;5014370;28;19941;-42
2020/12/22 08:52:19;;;;;;;;;;;13.20;87.70;;;;;;5022659;28;20015;-43
2020/12/22 08:54:46;;;;;;;;;;;13.20;87.70;;;;;;5018570;28;20031;-44
2020/12/22 08:57:16;;;;;;;;;;;13.20;87.90;;;;;;5018849;28;20444;-44
2020/12/22 08:59:43;;;;;;;;;;;13.30;87.70;;;;;;5019140;28;20031;-44
2020/12/22 09:02:21;;;;;;;;;;;13.30;87.50;;;;;;5017971;28;19929;-43
2020/12/22 09:04:47;;;;;;;;;;;13.30;87.40;;;;;;5016794;28;19925;-43
2020/12/22 09:07:14;;;;;;;;;;;13.30;87.60;;;;;;5020907;28;20035;-43
2020/12/22 09:09:40;;;;;;;;;;;13.30;87.40;;;;;;5015212;28;19926;-43
2020/12/22 09:12:10;;;;;;;;;;;13.40;87.40;;;;;;5018748;28;19936;-43
2020/12/22 09:14:44;;;;;;;;;;;13.40;87.30;;;;;;5016923;28;20405;-44
2020/12/22 09:17:11;;;;;;;;;;;13.40;87.00;;;;;;5019904;28;19957;-43
2020/12/22 09:19:47;;;;;;;;;;;13.50;86.90;;;;;;5017503;28;19929;-44
2020/12/22 09:22:15;;;;;;;;;;;13.50;86.60;;;;;;5018490;28;20311;-43
2020/12/22 09:24:42;;;;;;;;;;;13.50;86.80;;;;;;5020483;28;19933;-44
2020/12/22 09:27:12;;;;;;;;;;;13.50;86.80;;;;;;5021636;28;19925;-44
2020/12/22 09:29:39;;;;;;;;;;;13.50;86.80;;;;;;5013924;28;19931;-43
2020/12/22 09:32:08;;;;;;;;;;;13.50;86.70;;;;;;5016852;28;19929;-43
2020/12/22 09:34:35;;;;;;;;;;;13.60;86.70;;;;;;5015695;28;20388;-43
2020/12/22 09:37:03;;;;;;;;;;;13.60;86.50;;;;;;5018664;28;19925;-44
2020/12/22 09:39:30;;;;;;;;;;;13.60;86.50;;;;;;5014846;28;19936;-44
2020/12/22 09:41:56;;;;;;;;;;;13.70;86.30;;;;;;5015519;28;19939;-43
2020/12/22 09:44:23;;;;;;;;;;;13.70;86.50;;;;;;5014874;28;19936;-43
2020/12/22 09:46:51;;;;;;;;;;;13.60;86.50;;;;;;5016795;28;19943;-43
2020/12/22 09:49:17;;;;;;;;;;;13.60;86.60;;;;;;5015448;28;19933;-43
2020/12/22 09:51:44;;;;;;;;;;;13.70;86.40;;;;;;5018178;28;20325;-43
2020/12/22 09:54:15;;;;;;;;;;;13.60;86.50;;;;;;5015365;28;19933;-43
2020/12/22 09:56:42;;;;;;;;;;;13.70;86.80;;;;;;5017591;28;19941;-43
2020/12/22 09:59:08;;;;;;;;;;;13.70;86.50;;;;;;5016404;28;19925;-43
2020/12/22 10:01:37;;;;;;;;;;;13.70;86.50;;;;;;5016836;28;19940;-44
2020/12/22 10:04:03;;;;;;;;;;;13.80;86.30;;;;;;5015095;28;19959;-43
2020/12/22 10:06:29;;;;;;;;;;;13.80;86.40;;;;;;5017910;28;20388;-43
2020/12/22 10:08:55;;;;;;;;;;;13.80;86.40;;;;;;5031984;28;19960;-44
2020/12/22 10:11:22;;;;;;;;;;;13.90;86.00;;;;;;5016612;28;19925;-44
2020/12/22 10:13:48;;;;;;;;;;;13.90;85.90;;;;;;5017275;28;19930;-43
2020/12/22 10:16:16;;;;;;;;;;;13.90;85.70;;;;;;5016334;28;19933;-43
2020/12/22 10:18:42;;;;;;;;;;;13.90;85.70;;;;;;5016304;28;19933;-43
2020/12/22 10:21:10;;;;;;;;;;;14.00;85.60;;;;;;5015865;28;19926;-44
2020/12/22 10:23:37;;;;;;;;;;;14.00;85.60;;;;;;5018194;28;20634;-43
2020/12/22 10:26:04;;;;;;;;;;;14.00;85.70;;;;;;5019679;28;19952;-43
2020/12/22 10:28:34;;;;;;;;;;;13.90;86.00;;;;;;5021182;28;19926;-44
2020/12/22 10:31:01;;;;;;;;;;;14.00;86.00;;;;;;5019562;28;19995;-43
2020/12/22 10:33:27;;;;;;;;;;;14.00;86.20;;;;;;5022775;28;19932;-43
2020/12/22 10:35:53;;;;;;;;;;;14.00;86.00;;;;;;5021544;28;19933;-44
2020/12/22 10:38:20;;;;;;;;;;;14.00;85.90;;;;;;5019746;28;19929;-43
2020/12/22 10:40:47;;;;;;;;;;;14.10;85.90;;;;;;5024654;28;19929;-43
2020/12/22 10:43:15;;;;;;;;;;;14.10;85.80;;;;;;5019805;28;19940;-43
2020/12/22 10:45:41;;;;;;;;;;;14.20;85.80;;;;;;5023366;28;19933;-44
2020/12/22 10:48:08;;;;;;;;;;;14.30;85.70;;;;;;5022192;28;19932;-44
2020/12/22 10:50:38;;;;;;;;;;;14.30;85.80;;;;;;5020474;28;19925;-43
2020/12/22 10:53:07;;;;;;;;;;;14.30;85.90;;;;;;5018589;28;19935;-43
2020/12/22 10:55:34;;;;;;;;;;;14.40;86.10;;;;;;5020385;28;19940;-43
2020/12/22 10:58:01;;;;;;;;;;;14.40;85.80;;;;;;5019181;28;19937;-44
2020/12/22 11:00:27;;;;;;;;;;;14.40;85.60;;;;;;5024368;28;19929;-44
2020/12/22 11:02:54;;;;;;;;;;;14.50;85.50;;;;;;5020920;28;20292;-44
2020/12/22 11:08:11;;;;;;;;;;;14.70;85.00;;;;;;5020579;28;19925;-44
2020/12/22 11:10:40;;;;;;;;;;;14.70;85.00;;;;;;5018722;28;19933;-44
2020/12/22 11:13:07;;;;;;;;;;;14.80;84.80;;;;;;5022143;28;19940;-44
2020/12/22 11:15:34;;;;;;;;;;;14.90;84.80;;;;;;5017692;28;19929;-44
2020/12/22 11:18:00;;;;;;;;;;;14.90;84.50;;;;;;5020716;28;19929;-44
2020/12/22 11:20:26;;;;;;;;;;;15.00;83.60;;;;;;5020116;28;20407;-43
2020/12/22 11:22:52;;;;;;;;;;;15.00;83.80;;;;;;5017712;28;19925;-43
2020/12/22 11:25:19;;;;;;;;;;;15.10;83.50;;;;;;5021149;28;19936;-44
2020/12/22 11:27:45;;;;;;;;;;;15.10;83.10;;;;;;5019034;28;19926;-43
2020/12/22 11:30:12;;;;;;;;;;;15.20;82.90;;;;;;5019873;28;19948;-44
2020/12/22 11:32:39;;;;;;;;;;;15.20;82.60;;;;;;5018359;28;20433;-43
2020/12/22 11:35:05;;;;;;;;;;;15.20;82.50;;;;;;5018802;28;19925;-43
2020/12/22 11:37:32;;;;;;;;;;;15.20;83.10;;;;;;5023455;28;19929;-44
2020/12/22 11:40:00;;;;;;;;;;;15.20;82.70;;;;;;5019232;28;19933;-44
2020/12/22 11:42:27;;;;;;;;;;;15.20;82.70;;;;;;5017853;28;19925;-43
2020/12/22 11:44:53;;;;;;;;;;;15.20;82.80;;;;;;5019991;28;19932;-44
2020/12/22 11:47:20;;;;;;;;;;;15.20;82.90;;;;;;5017334;28;19929;-44
2020/12/22 11:49:46;;;;;;;;;;;15.20;83.00;;;;;;5017268;28;19934;-44
2020/12/22 11:52:13;;;;;;;;;;;15.30;82.80;;;;;;5018271;28;20473;-44
2020/12/22 11:54:39;;;;;;;;;;;15.30;82.80;;;;;;5017747;28;19932;-43
2020/12/22 11:57:06;;;;;;;;;;;15.30;82.70;;;;;;5018555;28;19952;-44
2020/12/22 11:59:33;;;;;;;;;;;15.30;82.70;;;;;;5019054;28;19933;-44
2020/12/22 12:02:06;;;;;;;;;;;15.30;82.70;;;;;;5016756;28;19940;-44
2020/12/22 12:04:32;;;;;;;;;;;15.30;82.70;;;;;;5018207;28;19979;-43
2020/12/22 12:06:58;;;;;;;;;;;15.40;82.40;;;;;;5017693;28;19936;-44
2020/12/22 12:09:25;;;;;;;;;;;15.30;82.60;;;;;;5032669;28;19932;-44
2020/12/22 12:11:52;;;;;;;;;;;15.30;82.70;;;;;;5018105;28;20017;-44
2020/12/22 12:14:19;;;;;;;;;;;15.40;82.70;;;;;;5018269;28;20012;-43
2020/12/22 12:16:48;;;;;;;;;;;15.30;82.40;;;;;;5020856;28;20091;-44
2020/12/22 12:19:18;;;;;;;;;;;15.40;82.40;;;;;;5019272;28;19929;-44
2020/12/22 12:21:44;;;;;;;;;;;15.40;82.10;;;;;;5019744;28;19929;-43
2020/12/22 12:24:11;;;;;;;;;;;15.40;82.00;;;;;;5018389;28;19933;-43
2020/12/22 12:26:37;;;;;;;;;;;15.40;82.10;;;;;;5018046;28;19926;-43
2020/12/22 12:29:04;;;;;;;;;;;15.30;82.30;;;;;;5019208;28;19935;-44
2020/12/22 12:31:31;;;;;;;;;;;15.30;82.40;;;;;;5017770;28;19933;-43
2020/12/22 12:34:00;;;;;;;;;;;15.30;82.80;;;;;;5019074;28;19940;-44
2020/12/22 12:36:26;;;;;;;;;;;15.30;82.70;;;;;;5018607;28;20320;-44
2020/12/22 12:38:53;;;;;;;;;;;15.20;82.90;;;;;;5016362;28;20500;-44
2020/12/22 12:41:19;;;;;;;;;;;15.20;83.10;;;;;;5019242;28;19925;-44
2020/12/22 12:43:46;;;;;;;;;;;15.30;83.00;;;;;;5017020;28;19988;-43
2020/12/22 12:46:12;;;;;;;;;;;15.20;82.80;;;;;;5019779;28;19929;-43
2020/12/22 12:48:38;;;;;;;;;;;15.20;82.70;;;;;;5018135;28;19932;-44
2020/12/22 12:51:09;;;;;;;;;;;15.10;83.10;;;;;;5020947;28;20381;-44
2020/12/22 12:53:37;;;;;;;;;;;15.20;82.80;;;;;;5018017;28;19926;-43
2020/12/22 12:56:15;;;;;;;;;;;15.20;82.90;;;;;;5018504;28;19937;-43
2020/12/22 12:58:41;;;;;;;;;;;15.20;83.00;;;;;;5017216;28;19929;-43
2020/12/22 13:01:10;;;;;;;;;;;15.20;82.90;;;;;;5018811;28;19940;-44
2020/12/22 13:03:39;;;;;;;;;;;15.20;82.80;;;;;;5015967;28;19996;-44
2020/12/22 13:06:06;;;;;;;;;;;15.20;82.80;;;;;;5017837;28;19956;-44
2020/12/22 13:08:32;;;;;;;;;;;15.20;82.60;;;;;;5016842;28;19932;-43
2020/12/22 13:10:58;;;;;;;;;;;15.30;82.60;;;;;;5023741;28;19925;-43
2020/12/22 13:13:25;;;;;;;;;;;15.30;82.70;;;;;;5021991;28;21514;-44
2020/12/22 13:15:51;;;;;;;;;;;15.30;82.50;;;;;;5015672;28;19925;-44
2020/12/22 13:18:17;;;;;;;;;;;15.20;82.80;;;;;;5015525;28;19947;-43
2020/12/22 13:20:43;;;;;;;;;;;15.20;82.70;;;;;;5018863;28;19929;-44
2020/12/22 13:23:10;;;;;;;;;;;15.20;82.80;;;;;;5013626;28;20021;-44
2020/12/22 13:25:38;;;;;;;;;;;15.20;82.40;;;;;;5017413;28;19964;-44
2020/12/22 13:28:05;;;;;;;;;;;15.30;82.30;;;;;;5015378;28;19929;-44
2020/12/22 13:30:31;;;;;;;;;;;15.30;82.20;;;;;;5018700;28;19929;-43
2020/12/22 13:32:59;;;;;;;;;;;15.30;82.00;;;;;;5023174;28;19933;-44
2020/12/22 13:35:25;;;;;;;;;;;15.30;82.00;;;;;;5032555;28;19933;-44
2020/12/22 13:38:11;;;;;;;;;;;15.30;81.90;;;;;;5016810;28;19940;-43
2020/12/22 13:40:37;;;;;;;;;;;15.30;81.90;;;;;;5014957;28;19933;-46
2020/12/22 13:43:04;;;;;;;;;;;15.40;81.80;;;;;;5014384;28;19937;-47
2020/12/22 13:45:30;;;;;;;;;;;15.30;82.00;;;;;;5017099;28;19925;-46
2020/12/22 13:47:57;;;;;;;;;;;15.30;82.10;;;;;;5014474;28;19925;-47
2020/12/22 13:50:23;;;;;;;;;;;15.40;81.90;;;;;;5017620;28;19925;-45
2020/12/22 13:52:49;;;;;;;;;;;15.30;82.10;;;;;;5013819;28;20626;-47
2020/12/22 13:55:18;;;;;;;;;;;15.30;82.00;;;;;;5017066;28;20405;-44
2020/12/22 13:57:46;;;;;;;;;;;15.30;81.90;;;;;;5034032;28;19936;-47
2020/12/22 14:00:13;;;;;;;;;;;15.40;82.00;;;;;;5017238;28;19952;-44
2020/12/22 14:02:39;;;;;;;;;;;15.40;81.80;;;;;;5020896;28;19933;-47
2020/12/22 14:05:07;;;;;;;;;;;15.30;81.80;;;;;;5019759;28;19979;-46
2020/12/22 14:07:35;;;;;;;;;;;15.30;82.10;;;;;;5021752;28;20028;-44
2020/12/22 14:10:02;;;;;;;;;;;15.30;81.90;;;;;;5019010;28;19943;-45
2020/12/22 14:12:29;;;;;;;;;;;15.30;81.70;;;;;;5019417;28;20381;-46
2020/12/22 14:14:55;;;;;;;;;;;15.30;81.90;;;;;;5023009;28;20377;-46
2020/12/22 14:17:21;;;;;;;;;;;15.30;82.00;;;;;;5021381;28;19953;-45
2020/12/22 14:19:47;;;;;;;;;;;15.20;82.20;;;;;;5033472;28;19933;-46